createdAt,value
2019-05-03T00:01:14.529Z,90.60
2019-05-03T00:03:42.552Z,91.15
2019-05-03T00:06:09.760Z,90.69
2019-05-03T00:08:37.201Z,90.56
2019-05-03T00:11:04.668Z,90.76
2019-05-03T00:13:32.585Z,91.97
2019-05-03T00:16:03.414Z,91.54
2019-05-03T00:18:32.604Z,91.77
2019-05-03T00:20:58.427Z,90.74
2019-05-03T00:23:25.872Z,91.35
2019-05-03T00:25:53.359Z,90.58
2019-05-03T00:28:21.741Z,90.24
2019-05-03T00:30:49.347Z,90.73
2019-05-03T00:33:16.795Z,91.02
2019-05-03T00:35:59.123Z,91.45
2019-05-03T00:38:26.599Z,90.46
2019-05-03T00:40:54.081Z,90.68
2019-05-03T00:43:22.263Z,90.37
2019-05-03T00:45:49.037Z,90.38
2019-05-03T00:48:16.477Z,89.71
2019-05-03T00:50:43.907Z,89.68
2019-05-03T00:53:11.733Z,89.34
2019-05-03T00:55:38.862Z,90.73
2019-05-03T00:58:06.326Z,90.62
2019-05-03T01:00:33.791Z,90.73
2019-05-03T01:03:02.276Z,90.09
2019-05-03T01:05:29.861Z,89.34
2019-05-03T01:07:57.331Z,88.62
2019-05-03T01:10:24.787Z,87.98
2019-05-03T01:12:52.504Z,89.33
2019-05-03T01:15:25.736Z,88.70
2019-05-03T01:17:53.208Z,89.06
2019-05-03T01:20:22.443Z,87.85
2019-05-03T01:22:48.161Z,88.24
2019-05-03T01:25:23.274Z,88.51
2019-05-03T01:27:43.887Z,88.10
2019-05-03T01:30:11.939Z,88.29
2019-05-03T01:32:38.858Z,87.76
2019-05-03T01:35:06.340Z,87.32
2019-05-03T01:37:33.797Z,87.19
2019-05-03T01:40:02.296Z,87.41
2019-05-03T01:42:28.751Z,87.83
2019-05-03T01:44:56.218Z,88.37
2019-05-03T01:47:24.019Z,89.17
2019-05-03T01:49:52.058Z,88.89
2019-05-03T01:52:19.028Z,88.34
2019-05-03T01:54:46.502Z,88.94
2019-05-03T01:57:14.425Z,89.21
2019-05-03T01:59:42.567Z,88.63
2019-05-03T02:02:12.510Z,87.94
2019-05-03T02:04:41.760Z,87.30
2019-05-03T02:07:07.686Z,87.05
2019-05-03T02:09:35.177Z,86.31
2019-05-03T02:12:02.698Z,85.88
2019-05-03T02:14:31.760Z,86.32
2019-05-03T02:16:57.721Z,87.89
2019-05-03T02:19:25.214Z,87.92
2019-05-03T02:21:52.714Z,88.96
2019-05-03T02:24:21.981Z,88.90
2019-05-03T02:26:48.862Z,89.14
2019-05-03T02:29:16.315Z,88.62
2019-05-03T02:31:43.896Z,90.63
2019-05-03T02:34:12.503Z,90.73
2019-05-03T02:36:38.912Z,90.40
2019-05-03T02:39:07.201Z,91.06
2019-05-03T02:41:34.680Z,91.23
2019-05-03T02:44:02.155Z,91.40
2019-05-03T02:46:29.636Z,92.04
2019-05-03T02:49:16.220Z,91.90
2019-05-03T02:51:46.037Z,90.32
2019-05-03T02:54:11.191Z,89.29
2019-05-03T02:56:38.681Z,88.44
2019-05-03T02:59:06.384Z,88.74
2019-05-03T03:01:35.776Z,89.50
2019-05-03T03:04:01.198Z,88.82
2019-05-03T03:06:28.670Z,88.05
2019-05-03T03:08:56.262Z,89.12
2019-05-03T03:11:26.088Z,89.53
2019-05-03T03:13:55.055Z,88.83
2019-05-03T03:16:20.821Z,89.65
2019-05-03T03:18:47.844Z,89.08
2019-05-03T03:21:16.868Z,89.13
2019-05-03T03:24:09.170Z,90.14
2019-05-03T03:26:41.485Z,89.73
2019-05-03T03:29:05.892Z,89.43
2019-05-03T03:31:59.097Z,89.10
2019-05-03T03:34:29.421Z,88.94
2019-05-03T03:37:03.807Z,89.99
2019-05-03T03:39:25.943Z,90.52
2019-05-03T03:41:51.983Z,91.53
2019-05-03T03:44:19.461Z,91.95
2019-05-03T03:46:49.735Z,91.36
2019-05-03T03:49:17.943Z,91.73
2019-05-03T03:51:45.633Z,91.70
2019-05-03T03:54:15.369Z,92.14
2019-05-03T03:56:54.584Z,91.71
2019-05-03T03:59:07.991Z,92.11
2019-05-03T04:01:35.574Z,92.53
2019-05-03T04:04:05.373Z,92.16
2019-05-03T04:06:36.056Z,93.01
2019-05-03T04:09:05.169Z,91.86
2019-05-03T04:11:31.069Z,91.01
2019-05-03T04:13:58.548Z,90.92
2019-05-03T04:16:26.146Z,90.36
2019-05-03T04:18:56.023Z,89.16
2019-05-03T04:21:29.904Z,88.58
2019-05-03T04:23:57.397Z,88.75
2019-05-03T04:26:29.384Z,88.56
2019-05-03T04:28:52.393Z,87.97
2019-05-03T04:31:19.874Z,87.44
2019-05-03T04:33:47.526Z,86.32
2019-05-03T04:36:15.919Z,85.97
2019-05-03T04:38:45.185Z,86.11
2019-05-03T04:41:09.993Z,87.06
2019-05-03T04:43:37.460Z,86.78
2019-05-03T04:46:12.284Z,86.43
2019-05-03T04:51:00.168Z,86.37
2019-05-03T04:53:27.639Z,86.61
2019-05-03T04:55:55.929Z,86.80
2019-05-03T04:58:25.677Z,87.29
2019-05-03T05:00:50.117Z,87.25
2019-05-03T05:03:18.194Z,86.81
2019-05-03T05:05:45.639Z,86.82
2019-05-03T05:08:13.056Z,86.60
2019-05-03T05:10:40.513Z,87.55
2019-05-03T05:13:07.934Z,87.81
2019-05-03T05:15:35.651Z,87.64
2019-05-03T05:18:05.787Z,87.49
2019-05-03T05:20:32.558Z,87.08
2019-05-03T05:23:00.000Z,86.88
2019-05-03T05:25:27.801Z,87.25
2019-05-03T05:28:11.980Z,87.39
2019-05-03T05:30:39.446Z,87.43
2019-05-03T05:33:06.889Z,87.33
2019-05-03T05:35:35.203Z,87.24
2019-05-03T05:38:01.800Z,87.39
2019-05-03T05:40:29.241Z,87.46
2019-05-03T05:42:57.449Z,86.76
2019-05-03T05:45:24.893Z,87.39
2019-05-03T05:48:05.174Z,87.26
2019-05-03T05:50:31.986Z,87.74
2019-05-03T05:52:59.448Z,87.56
2019-05-03T05:55:44.832Z,86.96
2019-05-03T05:58:15.694Z,86.50
2019-05-03T06:00:46.577Z,86.35
2019-05-03T06:03:14.950Z,86.44
2019-05-03T06:05:41.579Z,86.01
2019-05-03T06:08:10.375Z,85.72
2019-05-03T06:10:57.547Z,86.17
2019-05-03T06:13:29.610Z,86.21
2019-05-03T06:15:57.058Z,87.13
2019-05-03T06:18:35.336Z,86.92
2019-05-03T06:21:12.371Z,87.68
2019-05-03T06:23:56.325Z,87.25
2019-05-03T06:26:28.577Z,87.03
2019-05-03T06:28:56.120Z,86.68
2019-05-03T06:31:25.247Z,86.11
2019-05-03T06:33:52.593Z,85.85
2019-05-03T06:36:19.892Z,84.57
2019-05-03T06:38:47.521Z,84.94
2019-05-03T06:41:16.283Z,84.89
2019-05-03T06:43:45.014Z,85.41
2019-05-03T06:46:10.317Z,84.12
2019-05-03T06:48:37.754Z,85.22
2019-05-03T06:51:10.427Z,83.87
2019-05-03T06:53:34.397Z,82.88
2019-05-03T06:56:00.058Z,81.92
2019-05-03T06:58:33.066Z,81.88
2019-05-03T07:00:58.431Z,80.77
2019-05-03T07:03:35.325Z,80.95
2019-05-03T07:06:06.641Z,81.16
2019-05-03T07:08:35.899Z,81.89
2019-05-03T07:11:05.111Z,82.15
2019-05-03T07:13:30.804Z,82.07
2019-05-03T07:15:58.232Z,82.25
2019-05-03T07:18:25.665Z,80.43
2019-05-03T07:20:56.520Z,80.72
2019-05-03T07:23:21.110Z,80.50
2019-05-03T07:25:48.573Z,81.33
2019-05-03T07:28:15.982Z,81.46
2019-05-03T07:30:45.198Z,79.21
2019-05-03T07:33:10.868Z,78.43
2019-05-03T07:35:38.334Z,78.05
2019-05-03T07:38:05.780Z,79.30
2019-05-03T07:40:35.221Z,81.10
2019-05-03T07:43:01.214Z,79.94
2019-05-03T07:45:28.654Z,77.12
2019-05-03T07:47:56.149Z,77.15
2019-05-03T07:50:25.562Z,73.98
2019-05-03T07:52:51.723Z,73.16
2019-05-03T07:55:19.139Z,70.80
2019-05-03T07:57:49.995Z,69.10
2019-05-03T08:00:17.430Z,68.35
2019-05-03T08:02:44.876Z,68.50
2019-05-03T08:05:12.328Z,70.19
2019-05-03T08:07:39.767Z,72.48
2019-05-03T08:10:07.184Z,71.02
2019-05-03T08:12:34.960Z,70.56
2019-05-03T08:15:02.099Z,65.97
2019-05-03T08:17:29.541Z,66.98
2019-05-03T08:19:56.975Z,66.73
2019-05-03T08:22:25.842Z,68.21
2019-05-03T08:24:55.317Z,66.87
2019-05-03T08:27:20.791Z,65.93
2019-05-03T08:29:48.254Z,65.46
2019-05-03T08:32:18.222Z,65.75
2019-05-03T08:35:00.559Z,65.98
2019-05-03T08:37:28.211Z,66.72
2019-05-03T08:39:55.515Z,67.79
2019-05-03T08:42:25.203Z,64.39
2019-05-03T08:44:50.407Z,64.92
2019-05-03T08:47:17.832Z,64.13
2019-05-03T08:49:45.294Z,64.63
2019-05-03T08:52:12.717Z,66.22
2019-05-03T08:54:40.155Z,65.12
2019-05-03T08:57:07.600Z,64.66
2019-05-03T08:59:35.709Z,66.38
2019-05-03T09:02:03.709Z,68.76
2019-05-03T09:04:37.546Z,65.48
2019-05-03T09:06:58.482Z,67.91
2019-05-03T09:09:42.659Z,65.18
2019-05-03T09:12:10.102Z,64.92
2019-05-03T09:14:42.510Z,65.09
2019-05-03T09:17:05.084Z,64.78
2019-05-03T09:19:34.557Z,65.44
2019-05-03T09:22:00.267Z,65.13
2019-05-03T09:24:27.701Z,66.51
2019-05-03T09:26:55.664Z,62.38
2019-05-03T09:29:22.646Z,62.09
2019-05-03T09:31:50.091Z,63.61
2019-05-03T09:34:17.529Z,62.81
2019-05-03T09:36:50.184Z,63.13
2019-05-03T09:39:17.642Z,62.25
2019-05-03T09:41:45.160Z,60.89
2019-05-03T09:44:15.070Z,61.09
2019-05-03T09:46:41.502Z,59.48
2019-05-03T09:49:13.363Z,61.91
2019-05-03T09:51:36.397Z,59.08
2019-05-03T09:54:07.287Z,59.00
2019-05-03T09:56:47.918Z,58.12
2019-05-03T09:59:07.832Z,58.17
2019-05-03T10:01:35.288Z,59.08
2019-05-03T10:04:02.750Z,59.15
2019-05-03T10:06:30.226Z,60.81
2019-05-03T10:08:57.675Z,57.60
2019-05-03T10:11:25.422Z,59.10
2019-05-03T10:13:52.570Z,60.73
2019-05-03T10:16:20.007Z,57.69
2019-05-03T10:18:47.444Z,60.56
2019-05-03T10:21:15.006Z,59.29
2019-05-03T10:23:42.393Z,58.67
2019-05-03T10:26:09.925Z,58.60
2019-05-03T10:28:37.353Z,55.90
2019-05-03T10:31:07.458Z,56.90
2019-05-03T10:33:32.268Z,55.31
2019-05-03T10:35:59.729Z,55.04
2019-05-03T10:38:27.151Z,54.18
2019-05-03T10:40:55.215Z,55.64
2019-05-03T10:43:24.654Z,56.92
2019-05-03T10:45:50.141Z,57.62
2019-05-03T10:48:17.575Z,53.12
2019-05-03T10:50:45.014Z,55.00
2019-05-03T10:53:15.990Z,52.51
2019-05-03T10:55:45.064Z,52.73
2019-05-03T11:01:01.276Z,53.79
2019-05-03T11:03:28.714Z,54.16
2019-05-03T11:05:56.164Z,52.64
2019-05-03T11:08:23.577Z,52.43
2019-05-03T11:10:51.025Z,52.41
2019-05-03T11:13:18.446Z,54.97
2019-05-03T11:15:45.914Z,54.95
2019-05-03T11:18:14.716Z,55.85
2019-05-03T11:20:40.881Z,54.93
2019-05-03T11:23:08.361Z,56.63
2019-05-03T11:25:35.782Z,54.64
2019-05-03T11:28:04.899Z,56.13
2019-05-03T11:30:30.728Z,56.14
2019-05-03T11:33:00.681Z,52.42
2019-05-03T11:35:44.665Z,51.07
2019-05-03T11:38:15.166Z,51.73
2019-05-03T11:40:42.718Z,50.59
2019-05-03T11:43:10.173Z,51.02
2019-05-03T11:45:37.607Z,51.31
2019-05-03T11:48:05.054Z,50.40
2019-05-03T11:50:34.626Z,52.22
2019-05-03T11:53:00.077Z,53.29
2019-05-03T11:55:27.556Z,50.84
2019-05-03T11:57:56.647Z,50.53
2019-05-03T12:00:22.532Z,47.80
2019-05-03T12:02:50.317Z,47.71
2019-05-03T12:05:24.568Z,47.00
2019-05-03T12:07:51.870Z,50.36
2019-05-03T12:10:32.230Z,46.78
2019-05-03T12:13:04.897Z,49.15
2019-05-03T12:15:30.641Z,49.26
2019-05-03T12:17:59.356Z,49.79
2019-05-03T12:20:28.700Z,49.49
2019-05-03T12:22:53.573Z,46.39
2019-05-03T12:25:21.180Z,49.40
2019-05-03T12:27:47.981Z,44.97
2019-05-03T12:30:15.417Z,49.68
2019-05-03T12:32:42.878Z,46.57
2019-05-03T12:35:10.304Z,44.62
2019-05-03T12:37:37.762Z,45.37
2019-05-03T12:40:05.605Z,50.04
2019-05-03T12:42:35.226Z,46.17
2019-05-03T12:45:00.091Z,47.33
2019-05-03T12:47:27.873Z,47.13
2019-05-03T12:49:55.852Z,45.13
2019-05-03T12:52:25.588Z,45.99
2019-05-03T12:54:50.346Z,45.42
2019-05-03T12:57:17.796Z,47.62
2019-05-03T12:59:45.636Z,46.59
2019-05-03T13:02:19.032Z,49.57
2019-05-03T13:04:46.489Z,49.84
2019-05-03T13:07:14.911Z,49.20
2019-05-03T13:09:42.372Z,47.74
2019-05-03T13:12:09.839Z,49.01
2019-05-03T13:14:37.270Z,48.00
2019-05-03T13:17:04.877Z,45.70
2019-05-03T13:19:32.223Z,46.05
2019-05-03T13:21:59.678Z,46.22
2019-05-03T13:24:27.130Z,48.37
2019-05-03T13:26:54.634Z,47.00
2019-05-03T13:29:22.088Z,47.09
2019-05-03T13:32:01.279Z,46.65
2019-05-03T13:34:17.074Z,48.38
2019-05-03T13:36:45.668Z,48.45
2019-05-03T13:39:14.570Z,48.92
2019-05-03T13:41:39.560Z,47.80
2019-05-03T13:44:07.029Z,48.24
2019-05-03T13:46:35.284Z,49.96
2019-05-03T13:49:01.939Z,49.27
2019-05-03T13:51:29.399Z,48.09
2019-05-03T13:53:56.860Z,47.67
2019-05-03T13:56:24.703Z,47.89
2019-05-03T13:58:51.786Z,47.89
2019-05-03T14:01:19.239Z,48.47
2019-05-03T14:03:46.677Z,48.29
2019-05-03T14:06:14.222Z,48.67
2019-05-03T14:08:41.692Z,47.78
2019-05-03T14:11:09.132Z,49.82
2019-05-03T14:13:36.589Z,50.05
2019-05-03T14:16:05.499Z,47.98
2019-05-03T14:18:32.318Z,46.30
2019-05-03T14:21:06.339Z,46.80
2019-05-03T14:23:34.686Z,46.64
2019-05-03T14:26:01.412Z,48.49
2019-05-03T14:28:28.867Z,46.58
2019-05-03T14:30:56.303Z,47.17
2019-05-03T14:33:24.948Z,47.70
2019-05-03T14:35:52.311Z,47.09
2019-05-03T14:38:19.785Z,46.70
2019-05-03T14:40:47.422Z,46.97
2019-05-03T14:43:15.423Z,46.75
2019-05-03T14:45:42.159Z,46.14
2019-05-03T14:48:09.609Z,47.21
2019-05-03T14:50:37.052Z,48.20
2019-05-03T14:53:05.501Z,47.51
2019-05-03T14:55:35.457Z,47.19
2019-05-03T14:58:08.455Z,48.07
2019-05-03T15:00:38.861Z,49.18
2019-05-03T15:03:07.206Z,48.22
2019-05-03T15:05:34.870Z,47.75
2019-05-03T15:08:02.136Z,47.49
2019-05-03T15:10:29.587Z,47.63
2019-05-03T15:12:57.153Z,47.11
2019-05-03T15:15:25.127Z,48.38
2019-05-03T15:17:52.059Z,49.22
2019-05-03T15:20:19.512Z,48.30
2019-05-03T15:22:46.984Z,48.90
2019-05-03T15:25:14.422Z,49.53
2019-05-03T15:27:41.858Z,48.26
2019-05-03T15:30:09.295Z,49.83
2019-05-03T15:32:36.754Z,49.60
2019-05-03T15:35:07.919Z,50.02
2019-05-03T15:37:35.849Z,49.50
2019-05-03T15:40:05.717Z,50.20
2019-05-03T15:42:30.345Z,50.48
2019-05-03T15:45:16.665Z,49.91
2019-05-03T15:48:04.663Z,50.53
2019-05-03T15:50:32.117Z,50.41
2019-05-03T15:52:59.565Z,50.94
2019-05-03T15:55:27.040Z,50.49
2019-05-03T15:57:55.283Z,50.83
2019-05-03T16:00:21.915Z,52.42
2019-05-03T16:02:49.356Z,50.55
2019-05-03T16:05:17.122Z,50.27
2019-05-03T16:07:44.682Z,50.74
2019-05-03T16:10:12.115Z,51.08
2019-05-03T16:12:39.541Z,50.59
2019-05-03T16:15:07.000Z,50.77
2019-05-03T16:17:35.398Z,51.46
2019-05-03T16:20:02.367Z,53.41
2019-05-03T16:22:29.814Z,52.24
2019-05-03T16:24:57.241Z,52.20
2019-05-03T16:27:41.458Z,52.67
2019-05-03T16:30:09.243Z,52.79
2019-05-03T16:32:36.687Z,53.17
2019-05-03T16:35:04.499Z,53.22
2019-05-03T16:37:34.434Z,53.14
2019-05-03T16:40:00.115Z,55.37
2019-05-03T16:42:27.562Z,54.80
2019-05-03T16:44:55.071Z,53.79
2019-05-03T16:47:22.504Z,54.84
2019-05-03T16:49:49.954Z,54.59
2019-05-03T16:52:17.568Z,54.51
2019-05-03T16:54:46.059Z,54.45
2019-05-03T16:57:14.850Z,55.35
2019-05-03T16:59:41.101Z,54.97
2019-05-03T17:02:08.545Z,55.73
2019-05-03T17:04:37.827Z,54.32
2019-05-03T17:07:06.625Z,54.50
2019-05-03T17:09:50.854Z,54.74
2019-05-03T17:12:25.537Z,55.67
2019-05-03T17:14:51.054Z,55.61
2019-05-03T17:17:18.471Z,55.87
2019-05-03T17:19:45.930Z,56.40
2019-05-03T17:22:16.963Z,56.51
2019-05-03T17:24:40.831Z,57.56
2019-05-03T17:27:08.261Z,57.86
2019-05-03T17:29:35.711Z,58.47
2019-05-03T17:32:04.882Z,58.52
2019-05-03T17:34:31.309Z,59.36
2019-05-03T17:36:58.872Z,59.19
2019-05-03T17:39:45.446Z,59.72
2019-05-03T17:42:25.941Z,59.86
2019-05-03T17:44:54.627Z,59.23
2019-05-03T17:47:21.911Z,58.83
2019-05-03T17:49:50.067Z,58.62
2019-05-03T17:52:20.058Z,59.67
2019-05-03T17:54:57.411Z,59.55
2019-05-03T17:57:44.526Z,58.96
2019-05-03T18:00:16.734Z,59.17
2019-05-03T18:02:45.131Z,59.06
2019-05-03T18:05:17.109Z,59.22
2019-05-03T18:07:46.074Z,59.41
2019-05-03T18:10:15.146Z,59.21
2019-05-03T18:12:40.935Z,59.06
2019-05-03T18:15:08.421Z,59.08
2019-05-03T18:17:35.865Z,58.69
2019-05-03T18:20:04.554Z,58.85
2019-05-03T18:22:30.815Z,58.50
2019-05-03T18:24:58.269Z,58.57
2019-05-03T18:27:25.731Z,57.49
2019-05-03T18:29:53.142Z,58.37
2019-05-03T18:32:20.569Z,58.02
2019-05-03T18:34:48.054Z,58.03
2019-05-03T18:37:15.510Z,57.69
2019-05-03T18:39:45.097Z,57.40
2019-05-03T18:42:10.542Z,57.51
2019-05-03T18:44:38.901Z,57.93
2019-05-03T18:47:06.373Z,58.86
2019-05-03T18:49:35.347Z,58.78
2019-05-03T18:52:01.410Z,57.64
2019-05-03T18:54:28.864Z,57.73
2019-05-03T18:56:56.335Z,58.21
2019-05-03T18:59:23.756Z,57.87
2019-05-03T19:01:51.215Z,58.05
2019-05-03T19:04:31.514Z,58.50
2019-05-03T19:07:00.829Z,58.37
2019-05-03T19:09:17.902Z,59.12
2019-05-03T19:11:48.205Z,59.35
2019-05-03T19:14:17.425Z,59.07
2019-05-03T19:16:59.716Z,58.75
2019-05-03T19:19:31.646Z,58.46
2019-05-03T19:21:59.063Z,58.82
2019-05-03T19:24:26.503Z,58.88
2019-05-03T19:26:54.375Z,58.92
2019-05-03T19:29:21.490Z,59.02
2019-05-03T19:31:48.933Z,59.48
2019-05-03T19:34:16.385Z,60.59
2019-05-03T19:36:45.677Z,60.33
2019-05-03T19:39:11.282Z,60.54
2019-05-03T19:41:38.738Z,60.44
2019-05-03T19:44:06.418Z,61.93
2019-05-03T19:46:35.156Z,63.26
2019-05-03T19:49:02.345Z,64.14
2019-05-03T19:51:29.788Z,63.84
2019-05-03T19:53:57.211Z,64.00
2019-05-03T19:56:25.615Z,63.38
2019-05-03T19:58:52.171Z,66.34
2019-05-03T20:01:39.235Z,64.26
2019-05-03T20:04:24.581Z,64.93
2019-05-03T20:07:01.811Z,64.28
2019-05-03T20:09:29.592Z,64.68
2019-05-03T20:11:57.089Z,65.08
2019-05-03T20:14:25.760Z,64.81
2019-05-03T20:16:52.235Z,64.53
2019-05-03T20:19:21.374Z,63.66
2019-05-03T20:21:47.160Z,63.30
2019-05-03T20:24:14.933Z,64.70
2019-05-03T20:26:42.085Z,64.00
2019-05-03T20:29:09.514Z,64.38
2019-05-03T20:31:37.384Z,64.90
2019-05-03T20:34:05.368Z,66.27
2019-05-03T20:36:32.326Z,65.77
2019-05-03T20:38:59.772Z,64.63
2019-05-03T20:41:27.541Z,65.27
2019-05-03T20:43:59.099Z,65.95
2019-05-03T20:46:32.009Z,66.61
2019-05-03T20:49:00.235Z,66.11
2019-05-03T20:51:27.684Z,67.98
2019-05-03T20:53:55.405Z,68.55
2019-05-03T20:56:24.507Z,69.75
2019-05-03T20:58:50.080Z,69.78
2019-05-03T21:01:17.517Z,70.50
2019-05-03T21:03:45.102Z,70.21
2019-05-03T21:06:12.452Z,71.18
2019-05-03T21:08:52.209Z,71.06
2019-05-03T21:11:08.095Z,70.99
2019-05-03T21:13:41.955Z,70.17
2019-05-03T21:16:03.833Z,70.93
2019-05-03T21:18:34.487Z,71.56
2019-05-03T21:21:03.509Z,74.06
2019-05-03T21:23:34.423Z,73.48
2019-05-03T21:26:11.408Z,74.28
2019-05-03T21:28:27.765Z,75.18
2019-05-03T21:30:55.219Z,75.12
2019-05-03T21:33:22.669Z,77.44
2019-05-03T21:35:52.013Z,76.09
2019-05-03T21:38:19.600Z,75.78
2019-05-03T21:40:47.042Z,76.49
2019-05-03T21:43:15.252Z,76.36
2019-05-03T21:45:42.284Z,78.80
2019-05-03T21:48:10.542Z,78.78
2019-05-03T21:50:38.930Z,78.72
2019-05-03T21:53:06.400Z,79.68
2019-05-03T21:55:35.438Z,80.07
2019-05-03T21:58:01.368Z,79.58
2019-05-03T22:00:28.770Z,78.52
2019-05-03T22:02:56.748Z,77.59
2019-05-03T22:05:26.309Z,76.63
2019-05-03T22:07:51.170Z,77.93
2019-05-03T22:10:19.356Z,80.28
2019-05-03T22:12:46.808Z,80.80
2019-05-03T22:15:17.088Z,81.22
2019-05-03T22:17:50.116Z,81.95
2019-05-03T22:20:20.063Z,82.97
2019-05-03T22:23:08.239Z,83.28
2019-05-03T22:25:36.072Z,84.24
2019-05-03T22:28:04.579Z,84.94
2019-05-03T22:30:30.959Z,85.13
2019-05-03T22:32:58.396Z,86.09
2019-05-03T22:35:25.867Z,85.52
2019-05-03T22:37:55.065Z,84.52
2019-05-03T22:40:20.774Z,83.50
2019-05-03T22:42:48.256Z,82.82
2019-05-03T22:45:15.728Z,82.91
2019-05-03T22:47:44.603Z,83.24
2019-05-03T22:50:10.680Z,82.17
2019-05-03T22:52:38.107Z,84.60
2019-05-03T22:55:05.577Z,86.05
2019-05-03T22:57:34.875Z,86.22
2019-05-03T23:00:00.482Z,85.40
2019-05-03T23:02:27.921Z,84.98
2019-05-03T23:04:55.550Z,84.13
2019-05-03T23:07:24.848Z,84.17
2019-05-03T23:09:50.311Z,84.46
2019-05-03T23:12:17.745Z,84.24
2019-05-03T23:14:45.210Z,84.76
2019-05-03T23:17:14.773Z,84.23
2019-05-03T23:19:40.641Z,84.44
2019-05-03T23:22:15.334Z,86.68
2019-05-03T23:24:42.009Z,85.65
2019-05-03T23:27:09.420Z,84.32
2019-05-03T23:29:36.883Z,82.61
2019-05-03T23:32:04.687Z,81.99
2019-05-03T23:34:31.791Z,81.04
2019-05-03T23:36:59.245Z,80.92
2019-05-03T23:39:26.680Z,81.94
2019-05-03T23:41:55.771Z,82.33
2019-05-03T23:44:21.634Z,83.13
2019-05-03T23:47:05.219Z,82.41
2019-05-03T23:49:31.283Z,82.19
2019-05-03T23:51:58.745Z,82.53
2019-05-03T23:54:26.194Z,83.50
2019-05-03T23:56:54.774Z,84.78
2019-05-03T23:59:21.120Z,85.77
